createdAt,value
2019-02-28T00:00:55.119Z,13.30
2019-02-28T00:06:00.343Z,12.70
2019-02-28T00:11:05.000Z,12.77
2019-02-28T00:16:10.298Z,13.10
2019-02-28T00:21:14.387Z,10.70
2019-02-28T00:26:18.409Z,9.80
2019-02-28T00:31:22.587Z,9.83
2019-02-28T00:36:26.657Z,9.67
2019-02-28T00:41:31.613Z,9.33
2019-02-28T00:46:35.549Z,10.20
2019-02-28T00:51:40.908Z,10.53
2019-02-28T00:56:44.734Z,11.20
2019-02-28T01:01:48.734Z,11.30
2019-02-28T01:06:52.929Z,11.80
2019-02-28T01:11:57.057Z,12.17
2019-02-28T01:17:01.268Z,12.43
2019-02-28T01:22:05.304Z,13.63
2019-02-28T01:27:09.438Z,13.93
2019-02-28T01:32:15.645Z,14.43
2019-02-28T01:37:20.896Z,14.97
2019-02-28T01:42:25.558Z,14.10
2019-02-28T01:47:30.350Z,16.20
2019-02-28T01:52:36.701Z,15.07
2019-02-28T01:57:44.114Z,16.00
2019-02-28T02:02:48.370Z,16.30
2019-02-28T02:07:53.088Z,15.90
2019-02-28T02:12:57.896Z,15.47
2019-02-28T02:18:02.778Z,16.10
2019-02-28T02:23:07.474Z,17.37
2019-02-28T02:28:12.319Z,16.47
2019-02-28T02:33:17.761Z,16.03
2019-02-28T02:38:22.701Z,14.60
2019-02-28T02:43:27.733Z,15.37
2019-02-28T02:48:32.681Z,14.67
2019-02-28T02:53:41.862Z,15.10
2019-02-28T02:58:45.051Z,15.20
2019-02-28T03:03:49.984Z,14.37
2019-02-28T03:08:54.929Z,15.17
2019-02-28T03:14:00.062Z,15.40
2019-02-28T03:19:05.419Z,16.47
2019-02-28T03:24:14.661Z,15.10
2019-02-28T03:29:17.330Z,14.70
2019-02-28T03:34:22.211Z,14.43
2019-02-28T03:39:27.276Z,14.03
2019-02-28T03:44:32.033Z,14.30
2019-02-28T03:49:36.484Z,13.80
2019-02-28T03:54:42.489Z,14.30
2019-02-28T03:59:55.360Z,15.00
2019-02-28T04:04:55.191Z,15.13
2019-02-28T04:10:00.302Z,14.60
2019-02-28T04:15:10.261Z,14.23
2019-02-28T04:20:14.377Z,14.37
2019-02-28T04:25:23.316Z,14.07
2019-02-28T04:30:26.272Z,14.27
2019-02-28T04:35:31.136Z,15.20
2019-02-28T04:40:36.069Z,13.70
2019-02-28T04:45:41.332Z,14.30
2019-02-28T04:50:46.333Z,15.67
2019-02-28T04:55:51.740Z,14.30
2019-02-28T05:00:55.105Z,14.00
2019-02-28T05:05:59.885Z,14.00
2019-02-28T05:11:04.180Z,15.23
2019-02-28T05:16:12.343Z,15.40
2019-02-28T05:21:16.537Z,15.23
2019-02-28T05:26:23.506Z,14.83
2019-02-28T05:31:29.199Z,14.53
2019-02-28T05:36:34.571Z,14.70
2019-02-28T05:41:39.533Z,15.37
2019-02-28T05:46:45.686Z,14.77
2019-02-28T05:51:51.346Z,14.83
2019-02-28T05:56:58.046Z,15.10
2019-02-28T06:02:02.564Z,14.90
2019-02-28T06:07:09.392Z,15.53
2019-02-28T06:12:15.156Z,15.67
2019-02-28T06:17:20.628Z,16.10
2019-02-28T06:22:26.795Z,15.57
2019-02-28T06:27:41.231Z,15.87
2019-02-28T06:32:39.574Z,17.27
2019-02-28T06:37:45.105Z,20.50
2019-02-28T06:42:50.170Z,17.47
2019-02-28T06:47:55.174Z,17.43
2019-02-28T06:53:00.982Z,17.10
2019-02-28T06:58:07.242Z,17.13
2019-02-28T07:03:12.394Z,17.27
2019-02-28T07:08:20.756Z,19.30
2019-02-28T07:13:25.239Z,16.80
2019-02-28T07:18:30.118Z,16.57
2019-02-28T07:23:35.502Z,16.97
2019-02-28T07:28:40.707Z,16.27
2019-02-28T07:33:45.616Z,15.93
2019-02-28T07:38:51.411Z,16.23
2019-02-28T07:43:56.366Z,16.90
2019-02-28T07:49:01.677Z,16.23
2019-02-28T07:54:07.231Z,17.27
2019-02-28T07:59:14.784Z,17.00
2019-02-28T08:04:21.457Z,17.27
2019-02-28T08:09:29.522Z,17.87
2019-02-28T08:14:34.876Z,17.20
2019-02-28T08:19:40.108Z,17.83
2019-02-28T08:24:44.951Z,16.80
2019-02-28T08:29:50.141Z,17.80
2019-02-28T08:34:59.392Z,17.20
2019-02-28T08:40:03.745Z,17.97
2019-02-28T08:45:10.888Z,18.53
2019-02-28T08:50:20.661Z,18.80
2019-02-28T08:55:28.657Z,18.60
2019-02-28T09:00:33.374Z,18.40
2019-02-28T09:05:37.169Z,18.90
2019-02-28T09:10:43.739Z,19.60
2019-02-28T09:15:46.964Z,19.80
2019-02-28T09:20:50.421Z,19.07
2019-02-28T09:25:56.588Z,18.60
2019-02-28T09:31:01.306Z,19.47
2019-02-28T09:36:07.683Z,20.23
2019-02-28T09:41:12.037Z,20.27
2019-02-28T09:46:18.783Z,20.57
2019-02-28T09:51:23.170Z,19.87
2019-02-28T09:56:28.364Z,21.17
2019-02-28T10:01:32.175Z,20.17
2019-02-28T10:06:36.117Z,20.00
2019-02-28T10:11:40.812Z,21.83
2019-02-28T10:16:49.536Z,22.07
2019-02-28T10:21:53.269Z,22.70
2019-02-28T10:26:56.914Z,23.40
2019-02-28T10:32:01.004Z,23.40
2019-02-28T10:37:05.489Z,21.57
2019-02-28T10:42:09.778Z,23.00
2019-02-28T10:47:14.088Z,21.70
2019-02-28T10:52:18.304Z,21.20
2019-02-28T10:57:22.809Z,21.17
2019-02-28T11:02:26.998Z,21.47
2019-02-28T11:07:34.201Z,20.70
2019-02-28T11:12:41.651Z,19.90
2019-02-28T11:17:46.843Z,18.63
2019-02-28T11:22:52.444Z,21.67
2019-02-28T11:27:59.210Z,19.77
2019-02-28T11:33:04.991Z,21.70
2019-02-28T11:38:10.460Z,20.80
2019-02-28T11:43:16.004Z,21.70
2019-02-28T11:48:21.442Z,20.37
2019-02-28T11:53:26.508Z,21.40
2019-02-28T11:58:31.696Z,20.57
2019-02-28T12:03:37.751Z,21.97
2019-02-28T12:08:44.871Z,20.47
2019-02-28T12:13:51.598Z,19.17
2019-02-28T12:18:57.200Z,18.97
2019-02-28T12:24:02.033Z,19.03
2019-02-28T12:29:09.507Z,18.70
2019-02-28T12:34:15.307Z,19.70
2019-02-28T12:39:23.587Z,20.40
2019-02-28T12:44:28.711Z,19.80
2019-02-28T12:49:33.988Z,18.53
2019-02-28T12:54:38.904Z,18.60
2019-02-28T12:59:45.865Z,17.83
2019-02-28T13:04:51.989Z,18.03
2019-02-28T13:09:57.358Z,18.80
2019-02-28T13:15:03.264Z,18.97
2019-02-28T13:20:11.956Z,17.20
2019-02-28T13:25:19.488Z,16.87
2019-02-28T13:30:24.365Z,17.97
2019-02-28T13:35:30.257Z,17.17
2019-02-28T13:40:35.481Z,19.40
2019-02-28T13:45:40.890Z,21.10
2019-02-28T13:50:45.985Z,19.17
2019-02-28T13:55:52.673Z,19.67
2019-02-28T14:00:58.381Z,20.30
2019-02-28T14:06:04.599Z,20.70
2019-02-28T14:11:11.050Z,21.47
2019-02-28T14:16:15.518Z,21.27
2019-02-28T14:21:19.283Z,22.17
2019-02-28T14:26:22.856Z,21.20
2019-02-28T14:31:29.545Z,20.70
2019-02-28T14:36:32.827Z,21.00
2019-02-28T14:41:37.191Z,21.40
2019-02-28T14:46:41.403Z,22.87
2019-02-28T14:51:45.845Z,21.23
2019-02-28T14:56:50.162Z,21.27
2019-02-28T15:01:54.368Z,20.90
2019-02-28T15:06:58.946Z,19.63
2019-02-28T15:12:03.120Z,20.77
2019-02-28T15:17:08.341Z,20.83
2019-02-28T15:22:14.208Z,19.67
2019-02-28T15:27:19.232Z,20.23
2019-02-28T15:32:24.643Z,20.17
2019-02-28T15:37:30.344Z,20.80
2019-02-28T15:42:39.669Z,19.37
2019-02-28T15:47:44.073Z,20.30
2019-02-28T15:52:50.073Z,18.77
2019-02-28T15:57:55.465Z,18.60
2019-02-28T16:03:00.735Z,18.03
2019-02-28T16:08:10.393Z,16.63
2019-02-28T16:13:16.901Z,17.40
2019-02-28T16:18:22.111Z,16.27
2019-02-28T16:23:30.750Z,17.87
2019-02-28T16:28:34.385Z,19.50
2019-02-28T16:33:39.539Z,17.80
2019-02-28T16:38:45.081Z,18.63
2019-02-28T16:43:52.298Z,17.67
2019-02-28T16:48:58.261Z,14.33
2019-02-28T16:54:03.743Z,12.80
2019-02-28T16:59:09.215Z,11.03
2019-02-28T17:04:17.260Z,11.23
2019-02-28T17:09:30.302Z,11.77
2019-02-28T17:14:36.787Z,10.20
2019-02-28T17:19:42.356Z,9.60
2019-02-28T17:24:47.966Z,10.10
2019-02-28T17:30:00.552Z,9.50
2019-02-28T17:35:07.613Z,9.67
2019-02-28T17:40:13.353Z,9.73
2019-02-28T17:45:30.370Z,9.80
2019-02-28T17:51:01.563Z,8.77
2019-02-28T17:56:45.443Z,9.27
2019-02-28T18:02:38.874Z,9.20
2019-02-28T18:08:23.204Z,8.70
2019-02-28T18:14:14.614Z,9.07
2019-02-28T18:19:51.117Z,9.60
2019-02-28T18:25:33.952Z,9.60
2019-02-28T18:31:18.989Z,8.67
2019-02-28T18:36:23.678Z,9.33
2019-02-28T18:41:29.727Z,9.53
2019-02-28T18:46:35.827Z,10.50
2019-02-28T18:51:40.374Z,9.30
2019-02-28T18:56:44.765Z,9.50
2019-02-28T19:01:49.098Z,10.90
2019-02-28T19:06:54.866Z,10.53
2019-02-28T19:12:01.693Z,10.50
2019-02-28T19:17:08.044Z,9.93
2019-02-28T19:22:13.306Z,9.43
2019-02-28T19:27:19.435Z,9.50
2019-02-28T19:32:24.642Z,10.17
2019-02-28T19:37:29.937Z,10.73
2019-02-28T19:42:34.979Z,11.20
2019-02-28T19:47:40.099Z,12.30
2019-02-28T19:52:45.203Z,12.13
2019-02-28T19:57:50.267Z,14.47
2019-02-28T20:02:56.407Z,14.43
2019-02-28T20:08:01.677Z,13.97
2019-02-28T20:13:07.652Z,14.13
2019-02-28T20:18:13.134Z,14.17
2019-02-28T20:23:18.192Z,14.47
2019-02-28T20:28:24.169Z,14.07
2019-02-28T20:33:29.346Z,14.17
2019-02-28T20:38:34.575Z,12.63
2019-02-28T20:43:39.613Z,13.13
2019-02-28T20:48:45.665Z,13.70
2019-02-28T20:53:50.876Z,12.00
2019-02-28T20:58:56.687Z,11.40
2019-02-28T21:04:01.798Z,11.40
2019-02-28T21:09:07.770Z,11.40
2019-02-28T21:14:14.515Z,11.90
2019-02-28T21:19:19.778Z,9.30
2019-02-28T21:24:24.707Z,9.30
2019-02-28T21:29:29.246Z,9.53
2019-02-28T21:34:34.737Z,8.27
2019-02-28T21:39:40.018Z,8.20
2019-02-28T21:44:45.428Z,7.50
2019-02-28T21:49:50.647Z,7.33
2019-02-28T21:54:56.810Z,7.40
2019-02-28T22:00:02.176Z,6.60
2019-02-28T22:05:09.055Z,6.50
2019-02-28T22:10:14.208Z,6.63
2019-02-28T22:15:19.917Z,6.27
2019-02-28T22:20:25.692Z,6.40
2019-02-28T22:25:30.707Z,6.20
2019-02-28T22:31:02.452Z,6.10
2019-02-28T22:36:09.446Z,6.30
2019-02-28T22:41:15.441Z,5.87
2019-02-28T22:46:19.553Z,5.60
2019-02-28T22:51:23.772Z,5.37
2019-02-28T22:56:28.246Z,4.97
2019-02-28T23:01:35.369Z,5.40
2019-02-28T23:06:39.989Z,5.13
2019-02-28T23:11:44.259Z,5.93
2019-02-28T23:16:48.569Z,5.50
2019-02-28T23:21:53.014Z,5.47
2019-02-28T23:27:16.769Z,5.70
2019-02-28T23:32:34.612Z,5.07
2019-02-28T23:37:41.037Z,5.00
2019-02-28T23:42:46.203Z,5.03
2019-02-28T23:47:51.599Z,4.97
2019-02-28T23:52:57.624Z,5.30
2019-02-28T23:58:02.482Z,5.20
